Time;durP1;ratioP1;P1;durP2;ratioP2;P2;SDS_P1;SDS_P2;PMS_P1;PMS_P2;Temp;Humidity;BMP_temperature;BMP_pressure;BME280_temperature;BME280_humidity;BME280_pressure;Samples;Min_cycle;Max_cycle;Signal;HPM_P1;HPM_P2
2022/03/10 00:00:19;;;;;;;44.27;22.20;;;;;;;;;;4911355;28;20442;-36
2022/03/10 00:02:45;;;;;;;39.57;21.20;;;;;;;;;;4909745;28;20443;-35
2022/03/10 00:05:12;;;;;;;40.03;21.27;;;;;;;;;;4910416;28;21445;-36
2022/03/10 00:07:38;;;;;;;44.33;21.87;;;;;;;;;;4915192;28;20431;-34
2022/03/10 00:10:05;;;;;;;41.33;21.67;;;;;;;;;;4910712;28;20866;-33
2022/03/10 00:12:31;;;;;;;44.50;21.53;;;;;;;;;;4911509;28;20434;-34
2022/03/10 00:14:57;;;;;;;46.77;21.67;;;;;;;;;;4913169;28;21325;-34
2022/03/10 00:17:24;;;;;;;41.80;20.83;;;;;;;;;;4910165;28;21064;-34
2022/03/10 00:19:50;;;;;;;40.70;20.97;;;;;;;;;;4911154;28;20427;-34
2022/03/10 00:22:16;;;;;;;46.57;21.90;;;;;;;;;;4911221;28;20415;-34
2022/03/10 00:24:42;;;;;;;37.50;20.43;;;;;;;;;;4915535;28;20558;-34
2022/03/10 00:27:08;;;;;;;41.10;20.70;;;;;;;;;;4913832;28;20885;-35
2022/03/10 00:29:34;;;;;;;48.20;21.67;;;;;;;;;;4911695;28;20435;-35
2022/03/10 00:32:01;;;;;;;40.20;20.00;;;;;;;;;;4914153;28;20439;-34
2022/03/10 00:34:27;;;;;;;41.07;20.60;;;;;;;;;;4915473;28;20471;-35
2022/03/10 00:36:53;;;;;;;40.00;20.73;;;;;;;;;;4912515;28;20434;-35
2022/03/10 00:39:19;;;;;;;38.37;20.70;;;;;;;;;;4914486;28;20458;-35
2022/03/10 00:41:45;;;;;;;42.10;21.17;;;;;;;;;;4911541;28;20463;-35
2022/03/10 00:44:11;;;;;;;41.63;20.27;;;;;;;;;;4914104;28;21038;-35
2022/03/10 00:46:37;;;;;;;36.63;19.20;;;;;;;;;;4916287;28;20467;-35
2022/03/10 00:49:03;;;;;;;37.70;19.33;;;;;;;;;;4908930;28;20461;-34
2022/03/10 00:51:30;;;;;;;40.13;20.00;;;;;;;;;;4907947;28;21459;-34
2022/03/10 00:53:56;;;;;;;38.73;20.43;;;;;;;;;;4916502;28;20576;-35
2022/03/10 00:56:22;;;;;;;33.80;19.40;;;;;;;;;;4914142;28;20938;-34
2022/03/10 00:58:48;;;;;;;42.90;20.83;;;;;;;;;;4914986;28;21336;-35
2022/03/10 01:01:14;;;;;;;41.07;20.07;;;;;;;;;;4908682;28;20887;-35
2022/03/10 01:03:40;;;;;;;39.57;20.27;;;;;;;;;;4917783;28;20423;-35
2022/03/10 01:06:06;;;;;;;35.67;19.30;;;;;;;;;;4912784;28;20511;-37
2022/03/10 01:08:32;;;;;;;39.03;19.17;;;;;;;;;;4910575;28;21208;-35
2022/03/10 01:10:58;;;;;;;34.27;18.30;;;;;;;;;;4913060;28;20554;-35
2022/03/10 01:13:24;;;;;;;34.77;18.73;;;;;;;;;;4914184;28;20639;-35
2022/03/10 01:15:50;;;;;;;36.13;19.03;;;;;;;;;;4913574;28;20427;-35
2022/03/10 01:18:17;;;;;;;38.33;19.83;;;;;;;;;;4913000;28;20903;-35
2022/03/10 01:20:43;;;;;;;33.53;18.10;;;;;;;;;;4908607;28;20975;-34
2022/03/10 01:23:10;;;;;;;33.50;19.13;;;;;;;;;;4912858;28;22319;-35
2022/03/10 01:25:36;;;;;;;36.60;19.40;;;;;;;;;;4914021;28;21036;-35
2022/03/10 01:28:02;;;;;;;36.83;19.07;;;;;;;;;;4913100;28;21014;-35
2022/03/10 01:30:28;;;;;;;33.20;18.47;;;;;;;;;;4913997;28;20434;-35
2022/03/10 01:32:55;;;;;;;33.23;18.00;;;;;;;;;;4912769;28;20454;-35
2022/03/10 01:35:21;;;;;;;37.40;19.40;;;;;;;;;;4912252;28;20428;-35
2022/03/10 01:37:47;;;;;;;37.83;18.70;;;;;;;;;;4915282;28;20482;-35
2022/03/10 01:40:15;;;;;;;34.60;18.30;;;;;;;;;;4916719;28;20435;-35
2022/03/10 01:42:41;;;;;;;34.73;18.37;;;;;;;;;;4914518;28;20446;-35
2022/03/10 01:45:08;;;;;;;37.27;19.23;;;;;;;;;;4906574;28;20527;-35
2022/03/10 01:47:34;;;;;;;35.40;18.00;;;;;;;;;;4916098;28;20610;-35
2022/03/10 01:50:00;;;;;;;37.33;19.40;;;;;;;;;;4912689;28;20462;-36
2022/03/10 01:52:26;;;;;;;35.50;18.00;;;;;;;;;;4911245;28;20435;-35
2022/03/10 01:54:53;;;;;;;33.30;17.33;;;;;;;;;;4909287;28;20434;-35
2022/03/10 01:57:19;;;;;;;35.27;17.93;;;;;;;;;;4911771;28;20466;-35
2022/03/10 01:59:46;;;;;;;30.10;17.43;;;;;;;;;;4914633;28;20759;-35
2022/03/10 02:02:12;;;;;;;33.53;17.50;;;;;;;;;;4909893;28;21195;-35
2022/03/10 02:04:38;;;;;;;36.23;17.43;;;;;;;;;;4907188;28;20751;-35
2022/03/10 02:07:06;;;;;;;33.70;18.20;;;;;;;;;;4912890;28;20435;-35
2022/03/10 02:12:17;;;;;;;32.90;16.20;;;;;;;;;;4908098;28;21046;-35
2022/03/10 02:17:29;;;;;;;31.03;17.27;;;;;;;;;;4914365;28;20426;-35
2022/03/10 02:19:56;;;;;;;32.40;18.43;;;;;;;;;;4912919;28;20502;-34
2022/03/10 02:22:22;;;;;;;38.03;19.43;;;;;;;;;;4913314;28;20427;-35
2022/03/10 02:24:49;;;;;;;36.60;18.33;;;;;;;;;;4907499;28;20836;-35
2022/03/10 02:27:15;;;;;;;38.50;20.10;;;;;;;;;;4909591;28;20530;-35
2022/03/10 02:29:45;;;;;;;36.83;19.93;;;;;;;;;;4915134;28;20444;-35
2022/03/10 02:32:12;;;;;;;36.60;20.00;;;;;;;;;;4907966;28;20431;-35
2022/03/10 02:34:38;;;;;;;42.03;20.83;;;;;;;;;;4909546;28;20882;-35
2022/03/10 02:37:05;;;;;;;40.07;20.40;;;;;;;;;;4913523;28;20434;-35
2022/03/10 02:39:31;;;;;;;42.30;20.17;;;;;;;;;;4912003;28;20498;-34
2022/03/10 02:41:57;;;;;;;37.37;20.10;;;;;;;;;;4908755;28;20427;-35
2022/03/10 02:44:24;;;;;;;40.90;20.73;;;;;;;;;;4912284;28;20666;-35
2022/03/10 02:46:50;;;;;;;41.73;20.17;;;;;;;;;;4909999;28;20441;-35
2022/03/10 02:49:17;;;;;;;42.10;20.90;;;;;;;;;;4909942;28;20443;-35
2022/03/10 02:51:43;;;;;;;42.87;20.77;;;;;;;;;;4908520;28;21045;-35
2022/03/10 02:54:09;;;;;;;41.63;20.83;;;;;;;;;;4910824;28;20509;-35
2022/03/10 02:56:35;;;;;;;36.47;19.07;;;;;;;;;;4913821;28;20431;-35
2022/03/10 02:59:01;;;;;;;41.70;20.67;;;;;;;;;;4909611;28;20836;-35
2022/03/10 03:01:28;;;;;;;41.83;21.23;;;;;;;;;;4911039;28;20978;-35
2022/03/10 03:03:55;;;;;;;37.07;19.87;;;;;;;;;;4911674;28;21322;-35
2022/03/10 03:06:21;;;;;;;36.60;19.23;;;;;;;;;;4913878;28;20439;-35
2022/03/10 03:08:47;;;;;;;40.60;18.77;;;;;;;;;;4910933;28;21135;-35
2022/03/10 03:11:13;;;;;;;37.20;18.90;;;;;;;;;;4907250;28;20466;-35
2022/03/10 03:13:39;;;;;;;48.50;18.90;;;;;;;;;;4912306;28;20836;-35
2022/03/10 03:16:06;;;;;;;38.07;18.63;;;;;;;;;;4914100;28;20423;-35
2022/03/10 03:18:32;;;;;;;37.33;18.70;;;;;;;;;;4909486;28;20450;-35
2022/03/10 03:20:58;;;;;;;36.27;18.97;;;;;;;;;;4907939;28;20770;-35
2022/03/10 03:23:24;;;;;;;35.53;18.87;;;;;;;;;;4911719;28;20431;-35
2022/03/10 03:25:50;;;;;;;36.07;18.97;;;;;;;;;;4917601;28;20442;-35
2022/03/10 03:28:16;;;;;;;38.23;18.43;;;;;;;;;;4913853;28;20509;-35
2022/03/10 03:30:42;;;;;;;38.17;20.27;;;;;;;;;;4912216;28;20541;-35
2022/03/10 03:33:08;;;;;;;35.43;18.77;;;;;;;;;;4914425;28;20447;-35
2022/03/10 03:35:35;;;;;;;36.97;19.07;;;;;;;;;;4915260;28;21857;-35
2022/03/10 03:38:01;;;;;;;37.10;18.23;;;;;;;;;;4912124;28;20778;-35
2022/03/10 03:40:27;;;;;;;35.50;18.87;;;;;;;;;;4915897;28;20924;-35
2022/03/10 03:42:53;;;;;;;39.87;18.53;;;;;;;;;;4913364;28;20426;-35
2022/03/10 03:45:19;;;;;;;36.60;19.63;;;;;;;;;;4915539;28;20521;-35
2022/03/10 03:47:45;;;;;;;42.43;19.00;;;;;;;;;;4917006;28;21433;-35
2022/03/10 03:50:12;;;;;;;40.00;19.10;;;;;;;;;;4911928;28;20899;-35
2022/03/10 03:52:38;;;;;;;40.43;20.53;;;;;;;;;;4913759;28;20434;-35
2022/03/10 03:55:05;;;;;;;37.37;20.10;;;;;;;;;;4914451;28;20441;-36
2022/03/10 03:57:31;;;;;;;40.13;19.97;;;;;;;;;;4915622;28;20595;-35
2022/03/10 03:59:57;;;;;;;39.80;20.53;;;;;;;;;;4915804;28;20419;-35
2022/03/10 04:02:23;;;;;;;40.03;20.07;;;;;;;;;;4913945;28;20429;-35
2022/03/10 04:04:49;;;;;;;37.60;19.20;;;;;;;;;;4917173;28;20595;-35
2022/03/10 04:07:15;;;;;;;43.07;20.27;;;;;;;;;;4913358;28;21091;-35
2022/03/10 04:09:42;;;;;;;40.60;20.13;;;;;;;;;;4914779;28;21159;-35
2022/03/10 04:12:08;;;;;;;35.70;20.07;;;;;;;;;;4910142;28;20526;-35
2022/03/10 04:14:34;;;;;;;38.57;19.60;;;;;;;;;;4908669;28;20893;-34
2022/03/10 04:17:00;;;;;;;40.07;19.77;;;;;;;;;;4911248;28;20943;-34
2022/03/10 04:19:26;;;;;;;38.23;20.67;;;;;;;;;;4909528;28;21367;-34
2022/03/10 04:21:52;;;;;;;42.40;20.53;;;;;;;;;;4906134;28;20541;-35
2022/03/10 04:24:18;;;;;;;43.50;20.70;;;;;;;;;;4908948;28;20832;-35
2022/03/10 04:26:44;;;;;;;45.97;20.40;;;;;;;;;;4911794;28;20654;-35
2022/03/10 04:29:11;;;;;;;42.57;20.20;;;;;;;;;;4912287;28;20431;-34
2022/03/10 04:31:37;;;;;;;40.10;20.53;;;;;;;;;;4906447;28;20738;-34
2022/03/10 04:34:04;;;;;;;42.87;20.30;;;;;;;;;;4909317;28;20487;-35
2022/03/10 04:36:30;;;;;;;43.30;20.30;;;;;;;;;;4912956;28;20450;-34
2022/03/10 04:38:56;;;;;;;40.37;20.23;;;;;;;;;;4913430;28;20923;-35
2022/03/10 04:41:22;;;;;;;46.23;21.30;;;;;;;;;;4911612;28;20427;-34
2022/03/10 04:43:48;;;;;;;46.77;21.47;;;;;;;;;;4912249;28;21033;-35
2022/03/10 04:46:14;;;;;;;43.60;21.70;;;;;;;;;;4916769;28;20430;-34
2022/03/10 04:48:40;;;;;;;42.73;20.93;;;;;;;;;;4909823;28;21085;-34
2022/03/10 04:51:07;;;;;;;45.47;24.03;;;;;;;;;;4912501;28;20925;-34
2022/03/10 04:53:33;;;;;;;51.20;24.00;;;;;;;;;;4912696;28;20514;-34
2022/03/10 04:55:59;;;;;;;48.40;24.17;;;;;;;;;;4910431;28;20888;-35
2022/03/10 04:58:25;;;;;;;56.23;25.70;;;;;;;;;;4915009;28;20426;-35
2022/03/10 05:00:51;;;;;;;46.47;25.20;;;;;;;;;;4915486;28;20474;-35
2022/03/10 05:03:18;;;;;;;53.47;26.93;;;;;;;;;;4911359;28;20460;-35
2022/03/10 05:05:45;;;;;;;61.27;27.80;;;;;;;;;;4915298;28;20843;-35
2022/03/10 05:08:11;;;;;;;58.53;28.80;;;;;;;;;;4913890;28;20443;-35
2022/03/10 05:10:37;;;;;;;54.23;29.00;;;;;;;;;;4908854;28;20691;-34
2022/03/10 05:13:04;;;;;;;60.00;29.63;;;;;;;;;;4912486;28;20462;-34
2022/03/10 05:15:33;;;;;;;58.93;30.50;;;;;;;;;;4913034;28;20427;-35
2022/03/10 05:18:00;;;;;;;58.17;29.77;;;;;;;;;;4912091;28;20816;-35
2022/03/10 05:20:26;;;;;;;60.23;28.40;;;;;;;;;;4909902;28;21253;-35
2022/03/10 05:22:54;;;;;;;59.67;29.60;;;;;;;;;;4908930;28;21000;-35
2022/03/10 05:25:20;;;;;;;57.83;27.70;;;;;;;;;;4911091;28;20473;-35
2022/03/10 05:27:47;;;;;;;59.73;29.90;;;;;;;;;;4912344;28;20583;-35
2022/03/10 05:30:14;;;;;;;52.57;27.23;;;;;;;;;;4912156;28;20998;-35
2022/03/10 05:32:40;;;;;;;56.20;27.70;;;;;;;;;;4909878;28;20430;-35
2022/03/10 05:35:07;;;;;;;55.60;27.80;;;;;;;;;;4909963;28;20447;-35
2022/03/10 05:37:36;;;;;;;59.83;31.03;;;;;;;;;;4914255;28;20427;-35
2022/03/10 05:40:03;;;;;;;94.33;43.47;;;;;;;;;;4913149;28;20431;-35
2022/03/10 05:42:29;;;;;;;72.93;35.63;;;;;;;;;;4909648;28;20971;-35
2022/03/10 05:44:55;;;;;;;64.87;31.77;;;;;;;;;;4910212;28;20442;-35
2022/03/10 05:47:21;;;;;;;66.87;31.77;;;;;;;;;;4911753;28;20442;-35
2022/03/10 05:49:49;;;;;;;60.00;30.60;;;;;;;;;;4912632;28;20847;-35
2022/03/10 05:52:15;;;;;;;66.53;32.23;;;;;;;;;;4912768;28;20517;-35
2022/03/10 05:54:41;;;;;;;62.00;29.97;;;;;;;;;;4908902;28;20462;-35
2022/03/10 05:57:08;;;;;;;54.27;27.73;;;;;;;;;;4913539;28;20430;-35
2022/03/10 05:59:34;;;;;;;52.27;27.63;;;;;;;;;;4914497;28;20645;-35
2022/03/10 06:02:00;;;;;;;53.83;26.03;;;;;;;;;;4913301;28;20462;-35
2022/03/10 06:04:26;;;;;;;49.70;25.70;;;;;;;;;;4910648;28;20434;-36
2022/03/10 06:06:52;;;;;;;56.77;26.90;;;;;;;;;;4913794;28;20821;-35
2022/03/10 06:09:18;;;;;;;52.70;26.50;;;;;;;;;;4905927;28;20435;-35
2022/03/10 06:11:44;;;;;;;49.43;26.03;;;;;;;;;;4911506;28;21026;-35
2022/03/10 06:14:11;;;;;;;48.90;25.70;;;;;;;;;;4910760;28;20704;-36
2022/03/10 06:16:38;;;;;;;52.80;27.00;;;;;;;;;;4917295;28;20802;-35
2022/03/10 06:19:04;;;;;;;51.97;24.93;;;;;;;;;;4910923;28;20939;-35
2022/03/10 06:21:30;;;;;;;51.67;25.97;;;;;;;;;;4904951;28;20467;-35
2022/03/10 06:23:56;;;;;;;48.07;24.93;;;;;;;;;;4908280;28;20439;-35
2022/03/10 06:26:22;;;;;;;46.37;23.63;;;;;;;;;;4907477;28;20478;-36
2022/03/10 06:28:48;;;;;;;48.20;23.73;;;;;;;;;;4907325;28;20467;-37
2022/03/10 06:31:14;;;;;;;48.00;23.50;;;;;;;;;;4908577;28;20709;-35
2022/03/10 06:33:41;;;;;;;47.00;23.53;;;;;;;;;;4909023;28;20454;-36
2022/03/10 06:36:07;;;;;;;47.17;23.23;;;;;;;;;;4909773;28;21358;-36
2022/03/10 06:38:33;;;;;;;48.07;22.07;;;;;;;;;;4905607;28;20502;-36
2022/03/10 06:40:59;;;;;;;50.93;23.97;;;;;;;;;;4908253;28;20629;-36
2022/03/10 06:43:25;;;;;;;45.90;22.10;;;;;;;;;;4915639;28;20840;-35
2022/03/10 06:45:51;;;;;;;43.80;21.90;;;;;;;;;;4911513;28;20876;-36
2022/03/10 06:48:17;;;;;;;40.13;20.73;;;;;;;;;;4916004;28;20943;-36
2022/03/10 06:50:43;;;;;;;41.33;18.70;;;;;;;;;;4909992;28;20791;-36
2022/03/10 06:53:09;;;;;;;42.97;18.77;;;;;;;;;;4912620;28;20817;-37
2022/03/10 06:55:35;;;;;;;40.60;19.33;;;;;;;;;;4912819;28;20558;-36
2022/03/10 06:58:02;;;;;;;37.77;17.93;;;;;;;;;;4913587;28;20955;-36
2022/03/10 07:00:28;;;;;;;35.20;18.17;;;;;;;;;;4916945;28;20790;-36
2022/03/10 07:02:54;;;;;;;41.30;19.50;;;;;;;;;;4909954;28;20957;-36
2022/03/10 07:05:20;;;;;;;37.13;18.77;;;;;;;;;;4917689;28;20423;-36
2022/03/10 07:07:46;;;;;;;41.17;19.33;;;;;;;;;;4913233;28;20426;-36
2022/03/10 07:10:12;;;;;;;40.20;18.70;;;;;;;;;;4914340;28;20416;-37
2022/03/10 07:12:39;;;;;;;36.83;18.83;;;;;;;;;;4914098;28;20411;-36
2022/03/10 07:15:07;;;;;;;36.77;18.57;;;;;;;;;;4914090;28;20446;-36
2022/03/10 07:17:33;;;;;;;38.57;18.80;;;;;;;;;;4912936;28;20426;-36
2022/03/10 07:19:59;;;;;;;36.10;18.43;;;;;;;;;;4918034;28;20419;-36
2022/03/10 07:22:25;;;;;;;33.80;17.67;;;;;;;;;;4918155;28;20481;-36
2022/03/10 07:24:51;;;;;;;37.37;18.17;;;;;;;;;;4913713;28;20426;-36
2022/03/10 07:27:17;;;;;;;35.73;18.00;;;;;;;;;;4913840;28;20419;-37
2022/03/10 07:29:44;;;;;;;47.53;18.90;;;;;;;;;;4911232;28;20509;-36
2022/03/10 07:32:10;;;;;;;37.57;17.87;;;;;;;;;;4914678;28;20425;-36
2022/03/10 07:34:36;;;;;;;45.67;17.60;;;;;;;;;;4915059;28;20884;-37
2022/03/10 07:37:02;;;;;;;37.93;17.80;;;;;;;;;;4915400;28;20533;-36
2022/03/10 07:39:28;;;;;;;38.33;18.67;;;;;;;;;;4916918;28;21246;-37
2022/03/10 07:41:54;;;;;;;38.43;18.57;;;;;;;;;;4917873;28;20424;-37
2022/03/10 07:44:20;;;;;;;36.97;19.00;;;;;;;;;;4914938;28;21029;-37
2022/03/10 07:46:46;;;;;;;45.03;21.47;;;;;;;;;;4914519;28;20808;-37
2022/03/10 07:49:12;;;;;;;41.97;21.00;;;;;;;;;;4912314;28;20430;-37
2022/03/10 07:51:42;;;;;;;43.67;22.43;;;;;;;;;;4916707;28;20426;-36
2022/03/10 07:54:09;;;;;;;44.93;21.87;;;;;;;;;;4917367;28;20450;-37
2022/03/10 07:56:35;;;;;;;43.00;22.00;;;;;;;;;;4916229;28;20836;-37
2022/03/10 07:59:01;;;;;;;48.80;23.30;;;;;;;;;;4908638;28;20450;-37
2022/03/10 08:01:27;;;;;;;45.80;23.00;;;;;;;;;;4918188;28;21007;-38
2022/03/10 08:03:53;;;;;;;47.23;23.43;;;;;;;;;;4914736;29;20418;-37
2022/03/10 08:06:19;;;;;;;44.20;24.20;;;;;;;;;;4913807;28;20423;-38
2022/03/10 08:08:45;;;;;;;43.50;23.87;;;;;;;;;;4913607;28;20918;-37
2022/03/10 08:11:11;;;;;;;50.20;25.70;;;;;;;;;;4913545;28;20419;-37
2022/03/10 08:13:37;;;;;;;51.37;25.77;;;;;;;;;;4908176;28;20557;-37
2022/03/10 08:16:03;;;;;;;51.03;26.33;;;;;;;;;;4914302;28;20434;-38
2022/03/10 08:18:30;;;;;;;47.37;25.17;;;;;;;;;;4915683;28;20582;-37
2022/03/10 08:20:59;;;;;;;50.33;26.30;;;;;;;;;;4915623;28;21126;-38
2022/03/10 08:23:26;;;;;;;48.83;26.07;;;;;;;;;;4913253;28;20606;-38
2022/03/10 08:25:52;;;;;;;51.73;26.63;;;;;;;;;;4913673;28;20960;-38
2022/03/10 08:28:19;;;;;;;54.57;28.37;;;;;;;;;;4914906;28;21075;-37
2022/03/10 08:30:45;;;;;;;56.47;28.27;;;;;;;;;;4916583;28;20427;-38
2022/03/10 08:33:11;;;;;;;52.03;29.47;;;;;;;;;;4917000;28;20589;-38
2022/03/10 08:35:37;;;;;;;59.23;30.93;;;;;;;;;;4916174;28;20422;-37
2022/03/10 08:38:03;;;;;;;57.67;29.60;;;;;;;;;;4914720;28;20423;-38
2022/03/10 08:40:30;;;;;;;60.90;31.30;;;;;;;;;;4912792;28;20423;-38
2022/03/10 08:42:56;;;;;;;59.47;29.60;;;;;;;;;;4914331;28;20176;-38
2022/03/10 08:45:26;;;;;;;57.13;31.23;;;;;;;;;;4915240;28;20808;-39
2022/03/10 08:47:54;;;;;;;69.97;36.20;;;;;;;;;;4915833;28;20805;-38
2022/03/10 08:50:20;;;;;;;69.73;35.17;;;;;;;;;;4911217;28;20496;-37
2022/03/10 08:52:46;;;;;;;58.13;32.00;;;;;;;;;;4911619;28;20302;-37
2022/03/10 08:55:12;;;;;;;58.27;31.70;;;;;;;;;;4914803;28;20735;-37
2022/03/10 08:57:39;;;;;;;59.23;31.63;;;;;;;;;;4907223;28;20187;-38
2022/03/10 09:00:06;;;;;;;65.10;33.83;;;;;;;;;;4910818;28;20609;-37
2022/03/10 09:02:32;;;;;;;65.07;33.50;;;;;;;;;;4912698;28;20175;-38
2022/03/10 09:04:58;;;;;;;65.43;35.10;;;;;;;;;;4916568;28;20225;-37
2022/03/10 09:07:24;;;;;;;73.10;36.13;;;;;;;;;;4915363;28;20385;-37
2022/03/10 09:09:50;;;;;;;68.00;36.87;;;;;;;;;;4914581;29;20187;-37
2022/03/10 09:12:16;;;;;;;69.50;37.00;;;;;;;;;;4912117;28;20726;-37
2022/03/10 09:14:42;;;;;;;66.77;35.90;;;;;;;;;;4915252;28;20286;-38
2022/03/10 09:17:08;;;;;;;65.20;35.13;;;;;;;;;;4915206;28;20179;-38
2022/03/10 09:19:34;;;;;;;70.57;38.00;;;;;;;;;;4915905;28;20649;-38
2022/03/10 09:22:01;;;;;;;61.80;35.23;;;;;;;;;;4912666;28;20187;-37
2022/03/10 09:24:28;;;;;;;62.23;34.53;;;;;;;;;;4913199;28;20440;-38
2022/03/10 09:26:54;;;;;;;61.73;33.47;;;;;;;;;;4915489;28;20182;-37
2022/03/10 09:29:20;;;;;;;60.70;35.43;;;;;;;;;;4914617;28;20183;-38
2022/03/10 09:31:46;;;;;;;56.93;34.20;;;;;;;;;;4914035;28;20499;-37
2022/03/10 09:34:12;;;;;;;62.70;34.63;;;;;;;;;;4912931;28;20935;-37
2022/03/10 09:36:38;;;;;;;63.80;33.87;;;;;;;;;;4913459;28;20631;-37
2022/03/10 09:39:05;;;;;;;61.83;33.43;;;;;;;;;;4915234;28;20554;-37
2022/03/10 09:41:31;;;;;;;54.37;32.70;;;;;;;;;;4912895;29;20680;-37
2022/03/10 09:43:57;;;;;;;45.70;27.87;;;;;;;;;;4912344;28;20179;-37
2022/03/10 09:46:23;;;;;;;55.23;31.80;;;;;;;;;;4912734;28;20494;-37
2022/03/10 09:48:50;;;;;;;56.23;32.67;;;;;;;;;;4917521;29;20273;-37
2022/03/10 09:51:19;;;;;;;63.37;33.23;;;;;;;;;;4915258;28;20226;-38
2022/03/10 09:53:45;;;;;;;54.17;31.77;;;;;;;;;;4908340;28;20518;-37
2022/03/10 09:56:11;;;;;;;58.13;33.33;;;;;;;;;;4910881;28;21103;-38
2022/03/10 09:58:37;;;;;;;54.07;32.17;;;;;;;;;;4914476;28;21012;-38
2022/03/10 10:01:07;;;;;;;59.30;33.70;;;;;;;;;;4911432;28;20369;-38
2022/03/10 10:03:33;;;;;;;53.90;32.77;;;;;;;;;;4912649;28;20195;-38
2022/03/10 10:06:00;;;;;;;54.13;32.67;;;;;;;;;;4909230;28;20628;-38
2022/03/10 10:08:26;;;;;;;51.80;32.17;;;;;;;;;;4911098;28;20211;-38
2022/03/10 10:10:53;;;;;;;55.03;32.63;;;;;;;;;;4914129;29;20457;-38
2022/03/10 10:13:30;;;;;;;60.63;32.23;;;;;;;;;;4916492;28;20209;-37
2022/03/10 10:15:57;;;;;;;55.53;32.40;;;;;;;;;;4912405;28;20423;-38
2022/03/10 10:18:24;;;;;;;52.70;30.50;;;;;;;;;;4912104;29;20179;-37
2022/03/10 10:20:51;;;;;;;51.17;29.77;;;;;;;;;;4912784;28;20504;-37
2022/03/10 10:23:26;;;;;;;50.83;29.30;;;;;;;;;;4915885;28;20451;-37
2022/03/10 10:25:54;;;;;;;46.13;27.03;;;;;;;;;;4913024;28;20230;-38
2022/03/10 10:28:27;;;;;;;48.90;28.17;;;;;;;;;;4910047;28;20290;-38
2022/03/10 10:31:04;;;;;;;51.40;31.13;;;;;;;;;;4915582;28;20179;-37
2022/03/10 10:33:32;;;;;;;56.13;31.47;;;;;;;;;;4922903;28;20375;-36
2022/03/10 10:36:14;;;;;;;54.53;32.20;;;;;;;;;;4920251;28;20178;-37
2022/03/10 10:38:41;;;;;;;51.37;30.90;;;;;;;;;;4917688;28;20179;-36
2022/03/10 10:41:22;;;;;;;52.43;31.90;;;;;;;;;;4915932;28;20179;-36
2022/03/10 10:43:50;;;;;;;51.87;30.80;;;;;;;;;;4919101;28;20635;-36
2022/03/10 10:46:23;;;;;;;47.07;29.13;;;;;;;;;;4919391;28;20195;-36
2022/03/10 10:48:49;;;;;;;52.33;28.60;;;;;;;;;;4922927;28;20756;-37
2022/03/10 10:51:25;;;;;;;54.43;29.83;;;;;;;;;;4917536;28;20729;-36
2022/03/10 10:53:51;;;;;;;52.57;29.27;;;;;;;;;;4919598;28;20234;-37
2022/03/10 10:56:17;;;;;;;47.97;28.37;;;;;;;;;;4922933;28;20175;-37
2022/03/10 10:58:50;;;;;;;48.90;30.30;;;;;;;;;;4915274;28;20183;-36
2022/03/10 11:01:32;;;;;;;46.40;27.53;;;;;;;;;;4916986;28;20282;-36
2022/03/10 11:03:58;;;;;;;51.37;30.77;;;;;;;;;;4914641;28;20730;-37
2022/03/10 11:06:25;;;;;;;50.10;30.17;;;;;;;;;;4921562;29;20467;-36
2022/03/10 11:08:54;;;;;;;49.57;29.87;;;;;;;;;;4918376;28;20883;-37
2022/03/10 11:11:21;;;;;;;47.63;27.47;;;;;;;;;;4915421;28;20184;-37
2022/03/10 11:13:48;;;;;;;43.90;27.93;;;;;;;;;;4921557;28;20688;-37
2022/03/10 11:16:16;;;;;;;46.17;28.80;;;;;;;;;;4922321;29;20500;-36
2022/03/10 11:18:42;;;;;;;46.50;28.23;;;;;;;;;;4918590;28;20218;-36
2022/03/10 11:21:17;;;;;;;45.03;27.10;;;;;;;;;;4914270;28;20183;-37
2022/03/10 11:24:01;;;;;;;41.80;26.50;;;;;;;;;;4921841;28;20278;-36
2022/03/10 11:26:31;;;;;;;45.93;27.80;;;;;;;;;;4919795;29;20283;-36
2022/03/10 11:28:58;;;;;;;41.87;26.33;;;;;;;;;;4917376;28;20179;-36
2022/03/10 11:31:24;;;;;;;50.77;28.13;;;;;;;;;;4919143;28;21057;-36
2022/03/10 11:33:50;;;;;;;43.97;25.67;;;;;;;;;;4920700;28;20866;-36
2022/03/10 11:36:27;;;;;;;44.20;26.37;;;;;;;;;;4920835;28;20179;-36
2022/03/10 11:38:53;;;;;;;44.47;27.50;;;;;;;;;;4917192;28;20601;-36
2022/03/10 11:41:19;;;;;;;47.00;26.77;;;;;;;;;;4917270;28;20617;-36
2022/03/10 11:44:04;;;;;;;45.80;27.23;;;;;;;;;;4917399;28;20187;-36
2022/03/10 11:46:31;;;;;;;56.83;28.00;;;;;;;;;;4916108;28;20223;-36
2022/03/10 11:49:04;;;;;;;46.30;27.50;;;;;;;;;;4916763;28;20183;-36
2022/03/10 11:51:52;;;;;;;41.60;26.60;;;;;;;;;;4915367;28;20167;-36
2022/03/10 11:54:22;;;;;;;40.87;25.83;;;;;;;;;;4913985;28;20226;-36
2022/03/10 11:56:51;;;;;;;40.90;25.30;;;;;;;;;;4915762;28;20818;-36
2022/03/10 11:59:18;;;;;;;43.37;26.93;;;;;;;;;;4915648;28;20293;-36
2022/03/10 12:01:44;;;;;;;43.17;27.10;;;;;;;;;;4906684;28;20190;-36
2022/03/10 12:04:17;;;;;;;46.00;27.30;;;;;;;;;;4916078;28;20253;-36
2022/03/10 12:07:03;;;;;;;41.20;25.67;;;;;;;;;;4917843;28;20230;-36
2022/03/10 12:09:31;;;;;;;37.97;24.07;;;;;;;;;;4916937;28;20747;-37
2022/03/10 12:12:14;;;;;;;39.80;24.67;;;;;;;;;;4910616;28;20184;-36
2022/03/10 12:14:40;;;;;;;42.97;25.37;;;;;;;;;;4905039;28;20234;-36
2022/03/10 12:17:06;;;;;;;44.50;26.53;;;;;;;;;;4913382;28;20567;-36
2022/03/10 12:19:51;;;;;;;42.70;26.20;;;;;;;;;;4914705;28;20187;-37
2022/03/10 12:22:27;;;;;;;46.20;26.87;;;;;;;;;;4914899;28;20593;-36
2022/03/10 12:25:13;;;;;;;43.30;26.40;;;;;;;;;;4903312;28;21149;-36
2022/03/10 12:27:48;;;;;;;44.37;26.17;;;;;;;;;;4912519;28;20459;-35
2022/03/10 12:30:16;;;;;;;45.60;27.37;;;;;;;;;;4913285;28;20254;-36
2022/03/10 12:32:48;;;;;;;46.33;28.00;;;;;;;;;;4915383;28;20586;-36
2022/03/10 12:35:14;;;;;;;44.43;27.30;;;;;;;;;;4915005;28;20658;-36
2022/03/10 12:37:46;;;;;;;45.87;27.70;;;;;;;;;;4912507;28;20234;-36
2022/03/10 12:40:17;;;;;;;41.83;26.53;;;;;;;;;;4913388;28;20499;-36
2022/03/10 12:42:44;;;;;;;43.60;26.73;;;;;;;;;;4913378;28;20198;-36
2022/03/10 12:45:11;;;;;;;45.20;26.27;;;;;;;;;;4909815;28;20187;-36
2022/03/10 12:47:40;;;;;;;43.17;25.83;;;;;;;;;;4916156;28;20593;-37
2022/03/10 12:50:06;;;;;;;39.43;24.47;;;;;;;;;;4918164;28;20465;-36
2022/03/10 12:52:40;;;;;;;45.60;25.70;;;;;;;;;;4907923;28;20180;-36
2022/03/10 12:55:06;;;;;;;40.47;24.80;;;;;;;;;;4910700;28;20739;-36
2022/03/10 12:57:35;;;;;;;38.80;23.17;;;;;;;;;;4911873;28;20774;-37
2022/03/10 13:00:01;;;;;;;40.40;23.47;;;;;;;;;;4912939;28;20254;-36
2022/03/10 13:02:28;;;;;;;35.80;22.87;;;;;;;;;;4906832;29;20709;-36
2022/03/10 13:04:58;;;;;;;32.87;21.20;;;;;;;;;;4918529;29;20259;-37
2022/03/10 13:07:28;;;;;;;35.37;22.00;;;;;;;;;;4914058;28;20503;-36
2022/03/10 13:09:55;;;;;;;35.20;21.60;;;;;;;;;;4913349;28;20206;-37
2022/03/10 13:12:25;;;;;;;37.13;23.13;;;;;;;;;;4915512;28;21388;-37
2022/03/10 13:14:51;;;;;;;33.97;20.83;;;;;;;;;;4918289;28;20207;-37
2022/03/10 13:17:17;;;;;;;34.87;21.17;;;;;;;;;;4911021;28;20403;-37
2022/03/10 13:19:44;;;;;;;35.33;22.90;;;;;;;;;;4910841;28;20195;-36
2022/03/10 13:22:11;;;;;;;36.73;22.47;;;;;;;;;;4910427;28;20194;-36
2022/03/10 13:24:39;;;;;;;37.07;22.80;;;;;;;;;;4910021;28;20853;-36
2022/03/10 13:27:08;;;;;;;30.90;20.70;;;;;;;;;;4912044;28;20258;-37
2022/03/10 13:29:35;;;;;;;33.70;20.50;;;;;;;;;;4912851;28;20191;-36
2022/03/10 13:32:01;;;;;;;31.63;20.53;;;;;;;;;;4909518;28;20294;-35
2022/03/10 13:34:27;;;;;;;34.77;20.17;;;;;;;;;;4909660;28;20208;-36
2022/03/10 13:36:54;;;;;;;35.17;20.73;;;;;;;;;;4912807;28;20536;-36
2022/03/10 13:39:27;;;;;;;34.77;20.77;;;;;;;;;;4913594;28;20187;-36
2022/03/10 13:41:53;;;;;;;31.30;20.87;;;;;;;;;;4910232;29;20188;-36
2022/03/10 13:44:19;;;;;;;32.77;20.97;;;;;;;;;;4909671;28;20345;-35
2022/03/10 13:46:45;;;;;;;33.67;21.67;;;;;;;;;;4915262;28;20865;-36
2022/03/10 13:49:18;;;;;;;33.47;22.03;;;;;;;;;;4916872;28;21177;-36
2022/03/10 13:51:46;;;;;;;34.20;21.60;;;;;;;;;;4912352;28;20480;-36
2022/03/10 13:54:13;;;;;;;31.63;20.83;;;;;;;;;;4909661;28;20455;-36
2022/03/10 13:56:43;;;;;;;31.97;20.93;;;;;;;;;;4911833;28;20188;-36
2022/03/10 13:59:10;;;;;;;34.27;21.43;;;;;;;;;;4912052;28;20184;-36
2022/03/10 14:01:37;;;;;;;31.10;21.33;;;;;;;;;;4909558;28;20191;-36
2022/03/10 14:04:13;;;;;;;30.53;20.93;;;;;;;;;;4903832;28;20571;-36
2022/03/10 14:06:49;;;;;;;33.73;21.67;;;;;;;;;;4911279;28;20195;-36
2022/03/10 14:09:20;;;;;;;31.97;21.60;;;;;;;;;;4911687;28;20203;-36
2022/03/10 14:11:46;;;;;;;34.17;21.60;;;;;;;;;;4916258;28;20693;-36
2022/03/10 14:14:12;;;;;;;30.17;20.43;;;;;;;;;;4909124;28;20326;-36
2022/03/10 14:16:50;;;;;;;31.07;20.87;;;;;;;;;;4910264;28;20615;-36
2022/03/10 14:19:23;;;;;;;29.33;19.57;;;;;;;;;;4912390;28;20560;-36
2022/03/10 14:21:52;;;;;;;33.27;21.93;;;;;;;;;;4913883;28;20490;-36